sensor_id;sensor_type;location;lat;lon;timestamp;P1;durP1;ratioP1;P2;durP2;ratioP2
21810;SDS011;11067;48.788;9.208;2023-04-01T00:01:30;0.85;;;0.40;;
21810;SDS011;11067;48.788;9.208;2023-04-01T00:03:56;1.27;;;0.50;;
21810;SDS011;11067;48.788;9.208;2023-04-01T00:06:21;1.65;;;0.60;;
21810;SDS011;11067;48.788;9.208;2023-04-01T00:08:47;2.28;;;0.65;;
21810;SDS011;11067;48.788;9.208;2023-04-01T00:11:13;2.63;;;0.82;;
21810;SDS011;11067;48.788;9.208;2023-04-01T00:13:40;2.30;;;0.73;;
21810;SDS011;11067;48.788;9.208;2023-04-01T00:16:06;1.35;;;0.68;;
21810;SDS011;11067;48.788;9.208;2023-04-01T00:18:32;2.33;;;0.80;;
21810;SDS011;11067;48.788;9.208;2023-04-01T00:20:58;1.20;;;0.60;;
21810;SDS011;11067;48.788;9.208;2023-04-01T00:23:23;1.40;;;0.70;;
21810;SDS011;11067;48.788;9.208;2023-04-01T00:25:49;3.23;;;0.83;;
21810;SDS011;11067;48.788;9.208;2023-04-01T00:28:16;2.60;;;0.90;;
21810;SDS011;11067;48.788;9.208;2023-04-01T00:30:42;3.03;;;0.80;;
21810;SDS011;11067;48.788;9.208;2023-04-01T00:33:08;1.92;;;0.80;;
21810;SDS011;11067;48.788;9.208;2023-04-01T00:35:34;2.10;;;0.70;;
21810;SDS011;11067;48.788;9.208;2023-04-01T00:38:00;1.90;;;0.82;;
21810;SDS011;11067;48.788;9.208;2023-04-01T00:42:56;3.42;;;1.00;;
21810;SDS011;11067;48.788;9.208;2023-04-01T00:45:32;2.45;;;0.90;;
21810;SDS011;11067;48.788;9.208;2023-04-01T00:48:07;1.27;;;0.60;;
21810;SDS011;11067;48.788;9.208;2023-04-01T00:50:40;1.88;;;0.80;;
21810;SDS011;11067;48.788;9.208;2023-04-01T00:53:08;2.43;;;0.87;;
21810;SDS011;11067;48.788;9.208;2023-04-01T00:55:36;2.17;;;0.63;;
21810;SDS011;11067;48.788;9.208;2023-04-01T00:58:05;1.27;;;0.70;;
21810;SDS011;11067;48.788;9.208;2023-04-01T01:00:34;2.58;;;0.73;;
21810;SDS011;11067;48.788;9.208;2023-04-01T01:03:00;2.25;;;0.50;;
21810;SDS011;11067;48.788;9.208;2023-04-01T01:05:35;1.70;;;0.60;;
21810;SDS011;11067;48.788;9.208;2023-04-01T01:08:15;1.73;;;0.68;;
21810;SDS011;11067;48.788;9.208;2023-04-01T01:10:49;1.60;;;0.60;;
21810;SDS011;11067;48.788;9.208;2023-04-01T01:16:04;0.70;;;0.50;;
21810;SDS011;11067;48.788;9.208;2023-04-01T01:26:50;1.43;;;0.70;;
21810;SDS011;11067;48.788;9.208;2023-04-01T01:35:20;1.67;;;0.52;;
21810;SDS011;11067;48.788;9.208;2023-04-01T01:37:54;2.50;;;0.60;;
21810;SDS011;11067;48.788;9.208;2023-04-01T01:40:23;1.50;;;0.60;;
21810;SDS011;11067;48.788;9.208;2023-04-01T01:42:52;1.98;;;0.60;;
21810;SDS011;11067;48.788;9.208;2023-04-01T01:45:21;3.15;;;0.80;;
21810;SDS011;11067;48.788;9.208;2023-04-01T01:47:50;1.90;;;0.77;;
21810;SDS011;11067;48.788;9.208;2023-04-01T01:50:17;2.45;;;0.80;;
21810;SDS011;11067;48.788;9.208;2023-04-01T01:52:43;2.70;;;0.70;;
21810;SDS011;11067;48.788;9.208;2023-04-01T01:55:26;4.10;;;0.80;;
21810;SDS011;11067;48.788;9.208;2023-04-01T01:57:55;1.83;;;0.80;;
21810;SDS011;11067;48.788;9.208;2023-04-01T02:00:22;1.20;;;0.57;;
21810;SDS011;11067;48.788;9.208;2023-04-01T02:02:49;2.92;;;0.80;;
21810;SDS011;11067;48.788;9.208;2023-04-01T02:05:20;4.30;;;0.88;;
21810;SDS011;11067;48.788;9.208;2023-04-01T02:07:49;2.83;;;0.70;;
21810;SDS011;11067;48.788;9.208;2023-04-01T02:10:22;3.33;;;0.87;;
21810;SDS011;11067;48.788;9.208;2023-04-01T02:12:50;0.80;;;0.50;;
21810;SDS011;11067;48.788;9.208;2023-04-01T02:15:18;1.33;;;0.50;;
21810;SDS011;11067;48.788;9.208;2023-04-01T02:17:46;1.17;;;0.52;;
21810;SDS011;11067;48.788;9.208;2023-04-01T02:22:43;1.55;;;0.50;;
21810;SDS011;11067;48.788;9.208;2023-04-01T02:25:13;1.30;;;0.50;;
21810;SDS011;11067;48.788;9.208;2023-04-01T02:27:43;1.23;;;0.57;;
21810;SDS011;11067;48.788;9.208;2023-04-01T02:30:09;1.17;;;0.43;;
21810;SDS011;11067;48.788;9.208;2023-04-01T02:32:37;2.40;;;0.55;;
21810;SDS011;11067;48.788;9.208;2023-04-01T02:35:08;1.70;;;0.47;;
21810;SDS011;11067;48.788;9.208;2023-04-01T02:37:36;1.73;;;0.47;;
21810;SDS011;11067;48.788;9.208;2023-04-01T02:40:06;1.33;;;0.40;;
21810;SDS011;11067;48.788;9.208;2023-04-01T02:42:33;1.08;;;0.52;;
21810;SDS011;11067;48.788;9.208;2023-04-01T02:44:59;0.83;;;0.40;;
21810;SDS011;11067;48.788;9.208;2023-04-01T02:47:25;0.50;;;0.37;;
21810;SDS011;11067;48.788;9.208;2023-04-01T02:49:50;0.60;;;0.47;;
21810;SDS011;11067;48.788;9.208;2023-04-01T02:52:16;0.60;;;0.30;;
21810;SDS011;11067;48.788;9.208;2023-04-01T02:54:41;1.80;;;0.40;;
21810;SDS011;11067;48.788;9.208;2023-04-01T02:57:07;1.30;;;0.70;;
21810;SDS011;11067;48.788;9.208;2023-04-01T02:59:32;0.70;;;0.40;;
21810;SDS011;11067;48.788;9.208;2023-04-01T03:01:58;2.90;;;0.50;;
21810;SDS011;11067;48.788;9.208;2023-04-01T03:04:23;0.30;;;0.30;;
21810;SDS011;11067;48.788;9.208;2023-04-01T03:06:49;1.00;;;0.32;;
21810;SDS011;11067;48.788;9.208;2023-04-01T03:09:16;1.50;;;0.50;;
21810;SDS011;11067;48.788;9.208;2023-04-01T03:11:41;2.67;;;0.70;;
21810;SDS011;11067;48.788;9.208;2023-04-01T03:14:07;0.60;;;0.30;;
21810;SDS011;11067;48.788;9.208;2023-04-01T03:16:32;0.98;;;0.55;;
21810;SDS011;11067;48.788;9.208;2023-04-01T03:18:58;1.45;;;0.20;;
21810;SDS011;11067;48.788;9.208;2023-04-01T03:21:26;0.70;;;0.20;;
21810;SDS011;11067;48.788;9.208;2023-04-01T03:23:52;0.40;;;0.40;;
21810;SDS011;11067;48.788;9.208;2023-04-01T03:26:18;0.38;;;0.30;;
21810;SDS011;11067;48.788;9.208;2023-04-01T03:28:43;0.40;;;0.30;;
21810;SDS011;11067;48.788;9.208;2023-04-01T03:31:09;0.35;;;0.20;;
21810;SDS011;11067;48.788;9.208;2023-04-01T03:33:35;0.82;;;0.55;;
21810;SDS011;11067;48.788;9.208;2023-04-01T03:36:01;0.70;;;0.33;;
21810;SDS011;11067;48.788;9.208;2023-04-01T03:38:28;2.50;;;0.40;;
21810;SDS011;11067;48.788;9.208;2023-04-01T03:40:53;2.30;;;0.30;;
21810;SDS011;11067;48.788;9.208;2023-04-01T03:43:19;1.57;;;0.60;;
21810;SDS011;11067;48.788;9.208;2023-04-01T03:45:46;1.43;;;0.33;;
21810;SDS011;11067;48.788;9.208;2023-04-01T03:48:12;1.63;;;0.45;;
21810;SDS011;11067;48.788;9.208;2023-04-01T03:50:41;1.27;;;0.40;;
21810;SDS011;11067;48.788;9.208;2023-04-01T03:53:07;2.20;;;0.40;;
21810;SDS011;11067;48.788;9.208;2023-04-01T03:55:33;0.52;;;0.30;;
21810;SDS011;11067;48.788;9.208;2023-04-01T03:58:00;1.10;;;0.60;;
21810;SDS011;11067;48.788;9.208;2023-04-01T04:00:27;1.30;;;0.23;;
21810;SDS011;11067;48.788;9.208;2023-04-01T04:02:55;1.80;;;0.30;;
21810;SDS011;11067;48.788;9.208;2023-04-01T04:05:22;0.70;;;0.27;;
21810;SDS011;11067;48.788;9.208;2023-04-01T04:07:49;0.60;;;0.40;;
21810;SDS011;11067;48.788;9.208;2023-04-01T04:10:15;0.35;;;0.20;;
21810;SDS011;11067;48.788;9.208;2023-04-01T04:12:40;1.73;;;0.30;;
21810;SDS011;11067;48.788;9.208;2023-04-01T04:15:07;1.43;;;0.47;;
21810;SDS011;11067;48.788;9.208;2023-04-01T04:17:33;1.50;;;0.40;;
21810;SDS011;11067;48.788;9.208;2023-04-01T04:19:58;0.73;;;0.50;;
21810;SDS011;11067;48.788;9.208;2023-04-01T04:22:24;1.80;;;0.50;;
21810;SDS011;11067;48.788;9.208;2023-04-01T04:24:49;0.80;;;0.43;;
21810;SDS011;11067;48.788;9.208;2023-04-01T04:27:15;0.53;;;0.30;;
21810;SDS011;11067;48.788;9.208;2023-04-01T04:29:40;0.33;;;0.30;;
21810;SDS011;11067;48.788;9.208;2023-04-01T04:32:06;0.55;;;0.40;;
21810;SDS011;11067;48.788;9.208;2023-04-01T04:34:32;1.55;;;0.38;;
21810;SDS011;11067;48.788;9.208;2023-04-01T04:36:58;1.30;;;0.40;;
21810;SDS011;11067;48.788;9.208;2023-04-01T04:39:23;1.00;;;0.40;;
21810;SDS011;11067;48.788;9.208;2023-04-01T04:41:49;1.60;;;1.10;;
21810;SDS011;11067;48.788;9.208;2023-04-01T04:44:15;1.10;;;0.50;;
21810;SDS011;11067;48.788;9.208;2023-04-01T04:46:40;0.43;;;0.20;;
21810;SDS011;11067;48.788;9.208;2023-04-01T04:49:06;0.40;;;0.40;;
21810;SDS011;11067;48.788;9.208;2023-04-01T04:51:32;2.03;;;0.50;;
21810;SDS011;11067;48.788;9.208;2023-04-01T04:54:03;0.40;;;0.30;;
21810;SDS011;11067;48.788;9.208;2023-04-01T04:56:31;0.93;;;0.33;;
21810;SDS011;11067;48.788;9.208;2023-04-01T04:58:57;1.50;;;0.30;;
21810;SDS011;11067;48.788;9.208;2023-04-01T05:01:23;0.55;;;0.40;;
21810;SDS011;11067;48.788;9.208;2023-04-01T05:03:49;0.90;;;0.40;;
21810;SDS011;11067;48.788;9.208;2023-04-01T05:06:15;1.55;;;0.40;;
21810;SDS011;11067;48.788;9.208;2023-04-01T05:08:42;2.05;;;0.32;;
21810;SDS011;11067;48.788;9.208;2023-04-01T05:11:09;3.00;;;0.80;;
21810;SDS011;11067;48.788;9.208;2023-04-01T05:13:39;1.50;;;0.50;;
21810;SDS011;11067;48.788;9.208;2023-04-01T05:16:07;3.85;;;1.17;;
21810;SDS011;11067;48.788;9.208;2023-04-01T05:18:34;1.73;;;0.60;;
21810;SDS011;11067;48.788;9.208;2023-04-01T05:21:00;1.93;;;0.50;;
21810;SDS011;11067;48.788;9.208;2023-04-01T05:23:25;1.27;;;0.50;;
21810;SDS011;11067;48.788;9.208;2023-04-01T05:25:51;1.93;;;0.60;;
21810;SDS011;11067;48.788;9.208;2023-04-01T05:28:18;2.10;;;0.70;;
21810;SDS011;11067;48.788;9.208;2023-04-01T05:30:44;2.00;;;0.70;;
21810;SDS011;11067;48.788;9.208;2023-04-01T05:33:10;1.40;;;0.52;;
21810;SDS011;11067;48.788;9.208;2023-04-01T05:35:37;1.50;;;0.50;;
21810;SDS011;11067;48.788;9.208;2023-04-01T05:38:03;1.77;;;0.70;;
21810;SDS011;11067;48.788;9.208;2023-04-01T05:40:29;1.17;;;0.50;;
21810;SDS011;11067;48.788;9.208;2023-04-01T05:42:55;5.30;;;0.50;;
21810;SDS011;11067;48.788;9.208;2023-04-01T05:45:21;1.80;;;0.60;;
21810;SDS011;11067;48.788;9.208;2023-04-01T05:47:46;2.50;;;0.90;;
21810;SDS011;11067;48.788;9.208;2023-04-01T05:50:12;1.30;;;0.50;;
21810;SDS011;11067;48.788;9.208;2023-04-01T05:52:38;0.82;;;0.50;;
21810;SDS011;11067;48.788;9.208;2023-04-01T05:55:04;0.60;;;0.55;;
21810;SDS011;11067;48.788;9.208;2023-04-01T05:57:30;1.10;;;0.57;;
21810;SDS011;11067;48.788;9.208;2023-04-01T05:59:56;1.02;;;0.47;;
21810;SDS011;11067;48.788;9.208;2023-04-01T06:02:21;1.13;;;0.57;;
21810;SDS011;11067;48.788;9.208;2023-04-01T06:04:47;0.77;;;0.53;;
21810;SDS011;11067;48.788;9.208;2023-04-01T06:07:13;3.93;;;0.60;;
21810;SDS011;11067;48.788;9.208;2023-04-01T06:09:41;0.73;;;0.45;;
21810;SDS011;11067;48.788;9.208;2023-04-01T06:17:44;3.47;;;0.95;;
21810;SDS011;11067;48.788;9.208;2023-04-01T06:20:37;1.98;;;0.65;;
21810;SDS011;11067;48.788;9.208;2023-04-01T06:23:32;0.80;;;0.50;;
21810;SDS011;11067;48.788;9.208;2023-04-01T06:26:24;2.53;;;0.47;;
21810;SDS011;11067;48.788;9.208;2023-04-01T06:29:15;1.88;;;0.52;;
21810;SDS011;11067;48.788;9.208;2023-04-01T06:34:50;1.23;;;0.50;;
21810;SDS011;11067;48.788;9.208;2023-04-01T06:53:21;1.57;;;0.50;;
21810;SDS011;11067;48.788;9.208;2023-04-01T06:56:00;0.43;;;0.30;;
21810;SDS011;11067;48.788;9.208;2023-04-01T06:58:39;2.47;;;0.57;;
21810;SDS011;11067;48.788;9.208;2023-04-01T07:01:14;1.17;;;0.40;;
21810;SDS011;11067;48.788;9.208;2023-04-01T07:03:47;4.07;;;0.80;;
21810;SDS011;11067;48.788;9.208;2023-04-01T07:06:25;1.77;;;0.52;;
21810;SDS011;11067;48.788;9.208;2023-04-01T07:08:51;2.40;;;0.40;;
21810;SDS011;11067;48.788;9.208;2023-04-01T07:11:23;1.17;;;0.52;;
21810;SDS011;11067;48.788;9.208;2023-04-01T07:13:55;2.95;;;0.63;;
21810;SDS011;11067;48.788;9.208;2023-04-01T07:22:00;1.38;;;0.50;;
21810;SDS011;11067;48.788;9.208;2023-04-01T07:24:39;1.98;;;0.40;;
21810;SDS011;11067;48.788;9.208;2023-04-01T07:27:10;2.67;;;0.60;;
21810;SDS011;11067;48.788;9.208;2023-04-01T07:29:38;1.00;;;0.40;;
21810;SDS011;11067;48.788;9.208;2023-04-01T07:32:07;2.33;;;0.63;;
21810;SDS011;11067;48.788;9.208;2023-04-01T07:35:22;0.90;;;0.43;;
21810;SDS011;11067;48.788;9.208;2023-04-01T07:37:31;1.27;;;0.45;;
21810;SDS011;11067;48.788;9.208;2023-04-01T07:40:21;1.47;;;0.50;;
21810;SDS011;11067;48.788;9.208;2023-04-01T07:43:05;1.45;;;0.38;;
21810;SDS011;11067;48.788;9.208;2023-04-01T07:48:40;1.60;;;0.60;;
21810;SDS011;11067;48.788;9.208;2023-04-01T07:54:08;0.98;;;0.60;;
21810;SDS011;11067;48.788;9.208;2023-04-01T07:56:56;0.83;;;0.40;;
21810;SDS011;11067;48.788;9.208;2023-04-01T07:59:44;3.00;;;0.60;;
21810;SDS011;11067;48.788;9.208;2023-04-01T08:05:19;3.00;;;0.50;;
21810;SDS011;11067;48.788;9.208;2023-04-01T08:07:56;1.92;;;0.52;;
21810;SDS011;11067;48.788;9.208;2023-04-01T08:16:12;1.58;;;0.60;;
21810;SDS011;11067;48.788;9.208;2023-04-01T08:21:58;0.98;;;0.60;;
21810;SDS011;11067;48.788;9.208;2023-04-01T08:24:42;1.33;;;0.73;;
21810;SDS011;11067;48.788;9.208;2023-04-01T08:27:17;1.73;;;0.93;;
21810;SDS011;11067;48.788;9.208;2023-04-01T08:32:39;0.73;;;0.57;;
21810;SDS011;11067;48.788;9.208;2023-04-01T08:37:42;2.42;;;0.57;;
21810;SDS011;11067;48.788;9.208;2023-04-01T08:43:16;1.85;;;0.65;;
21810;SDS011;11067;48.788;9.208;2023-04-01T08:48:45;1.42;;;0.63;;
21810;SDS011;11067;48.788;9.208;2023-04-01T08:59:50;1.70;;;0.55;;
21810;SDS011;11067;48.788;9.208;2023-04-01T09:16:31;1.27;;;0.50;;
21810;SDS011;11067;48.788;9.208;2023-04-01T09:44:33;1.20;;;0.40;;
21810;SDS011;11067;48.788;9.208;2023-04-01T09:47:06;0.55;;;0.47;;
21810;SDS011;11067;48.788;9.208;2023-04-01T09:58:43;0.20;;;0.20;;
21810;SDS011;11067;48.788;9.208;2023-04-01T10:07:14;1.90;;;0.50;;
21810;SDS011;11067;48.788;9.208;2023-04-01T10:16:12;0.20;;;0.20;;
21810;SDS011;11067;48.788;9.208;2023-04-01T10:18:56;0.98;;;0.30;;
21810;SDS011;11067;48.788;9.208;2023-04-01T10:22:06;0.60;;;0.30;;
21810;SDS011;11067;48.788;9.208;2023-04-01T10:24:56;0.68;;;0.40;;
21810;SDS011;11067;48.788;9.208;2023-04-01T10:28:08;0.80;;;0.30;;
21810;SDS011;11067;48.788;9.208;2023-04-01T10:34:00;0.70;;;0.20;;
21810;SDS011;11067;48.788;9.208;2023-04-01T10:36:53;1.30;;;0.30;;
21810;SDS011;11067;48.788;9.208;2023-04-01T10:44:58;1.67;;;0.75;;
21810;SDS011;11067;48.788;9.208;2023-04-01T10:53:27;0.43;;;0.32;;
21810;SDS011;11067;48.788;9.208;2023-04-01T10:58:58;0.30;;;0.30;;
21810;SDS011;11067;48.788;9.208;2023-04-01T11:02:10;0.57;;;0.40;;
21810;SDS011;11067;48.788;9.208;2023-04-01T11:19:34;0.30;;;0.30;;
21810;SDS011;11067;48.788;9.208;2023-04-01T11:27:48;0.50;;;0.30;;
21810;SDS011;11067;48.788;9.208;2023-04-01T11:30:28;1.02;;;0.30;;
21810;SDS011;11067;48.788;9.208;2023-04-01T11:33:23;0.22;;;0.22;;
21810;SDS011;11067;48.788;9.208;2023-04-01T11:35:57;1.20;;;0.30;;
21810;SDS011;11067;48.788;9.208;2023-04-01T11:41:29;0.53;;;0.30;;
21810;SDS011;11067;48.788;9.208;2023-04-01T11:46:46;0.30;;;0.30;;
21810;SDS011;11067;48.788;9.208;2023-04-01T11:55:16;1.60;;;0.20;;
21810;SDS011;11067;48.788;9.208;2023-04-01T11:58:03;0.20;;;0.20;;
21810;SDS011;11067;48.788;9.208;2023-04-01T12:06:35;1.50;;;0.60;;
21810;SDS011;11067;48.788;9.208;2023-04-01T12:09:12;0.30;;;0.30;;
21810;SDS011;11067;48.788;9.208;2023-04-01T12:12:08;0.50;;;0.40;;
21810;SDS011;11067;48.788;9.208;2023-04-01T12:17:49;0.33;;;0.33;;
21810;SDS011;11067;48.788;9.208;2023-04-01T12:26:05;0.77;;;0.30;;
21810;SDS011;11067;48.788;9.208;2023-04-01T12:28:45;0.30;;;0.30;;
21810;SDS011;11067;48.788;9.208;2023-04-01T12:37:11;1.23;;;0.47;;
21810;SDS011;11067;48.788;9.208;2023-04-01T12:39:58;0.20;;;0.20;;
21810;SDS011;11067;48.788;9.208;2023-04-01T12:42:31;0.40;;;0.40;;
21810;SDS011;11067;48.788;9.208;2023-04-01T12:51:04;0.20;;;0.20;;
21810;SDS011;11067;48.788;9.208;2023-04-01T13:08:37;0.47;;;0.25;;
21810;SDS011;11067;48.788;9.208;2023-04-01T13:11:32;0.20;;;0.20;;
21810;SDS011;11067;48.788;9.208;2023-04-01T13:17:07;0.38;;;0.30;;
21810;SDS011;11067;48.788;9.208;2023-04-01T13:19:44;0.30;;;0.30;;
21810;SDS011;11067;48.788;9.208;2023-04-01T13:22:20;0.25;;;0.20;;
21810;SDS011;11067;48.788;9.208;2023-04-01T13:25:23;0.30;;;0.30;;
21810;SDS011;11067;48.788;9.208;2023-04-01T13:27:59;0.32;;;0.30;;
21810;SDS011;11067;48.788;9.208;2023-04-01T13:33:49;0.77;;;0.20;;
21810;SDS011;11067;48.788;9.208;2023-04-01T13:42:09;0.40;;;0.20;;
21810;SDS011;11067;48.788;9.208;2023-04-01T13:50:30;0.33;;;0.33;;
21810;SDS011;11067;48.788;9.208;2023-04-01T13:53:32;1.30;;;0.27;;
21810;SDS011;11067;48.788;9.208;2023-04-01T13:56:04;0.20;;;0.20;;
21810;SDS011;11067;48.788;9.208;2023-04-01T14:02:03;0.35;;;0.10;;
21810;SDS011;11067;48.788;9.208;2023-04-01T14:05:09;0.20;;;0.20;;
21810;SDS011;11067;48.788;9.208;2023-04-01T14:08:19;0.30;;;0.30;;
21810;SDS011;11067;48.788;9.208;2023-04-01T14:14:21;0.20;;;0.20;;
21810;SDS011;11067;48.788;9.208;2023-04-01T14:22:42;0.73;;;0.20;;
21810;SDS011;11067;48.788;9.208;2023-04-01T14:31:18;0.30;;;0.10;;
21810;SDS011;11067;48.788;9.208;2023-04-01T14:34:21;0.40;;;0.30;;
21810;SDS011;11067;48.788;9.208;2023-04-01T14:40:15;0.22;;;0.20;;
21810;SDS011;11067;48.788;9.208;2023-04-01T14:48:17;1.13;;;0.68;;
21810;SDS011;11067;48.788;9.208;2023-04-01T14:50:57;0.20;;;0.20;;
21810;SDS011;11067;48.788;9.208;2023-04-01T14:53:36;0.60;;;0.40;;
21810;SDS011;11067;48.788;9.208;2023-04-01T14:56:07;1.17;;;0.52;;
21810;SDS011;11067;48.788;9.208;2023-04-01T14:58:43;1.10;;;0.50;;
21810;SDS011;11067;48.788;9.208;2023-04-01T15:06:25;1.80;;;0.40;;
21810;SDS011;11067;48.788;9.208;2023-04-01T15:12:16;1.35;;;0.90;;
21810;SDS011;11067;48.788;9.208;2023-04-01T15:17:55;0.30;;;0.30;;
21810;SDS011;11067;48.788;9.208;2023-04-01T15:20:44;1.27;;;0.30;;
21810;SDS011;11067;48.788;9.208;2023-04-01T15:26:29;0.20;;;0.10;;
21810;SDS011;11067;48.788;9.208;2023-04-01T15:31:44;1.50;;;0.20;;
21810;SDS011;11067;48.788;9.208;2023-04-01T15:45:36;0.17;;;0.17;;
21810;SDS011;11067;48.788;9.208;2023-04-01T15:51:36;0.20;;;0.20;;
21810;SDS011;11067;48.788;9.208;2023-04-01T16:00:29;0.28;;;0.28;;
21810;SDS011;11067;48.788;9.208;2023-04-01T16:16:44;1.63;;;0.60;;
21810;SDS011;11067;48.788;9.208;2023-04-01T16:19:41;3.15;;;0.63;;
21810;SDS011;11067;48.788;9.208;2023-04-01T16:22:29;0.50;;;0.50;;
21810;SDS011;11067;48.788;9.208;2023-04-01T16:25:19;1.38;;;0.98;;
21810;SDS011;11067;48.788;9.208;2023-04-01T16:34:01;0.40;;;0.40;;
21810;SDS011;11067;48.788;9.208;2023-04-01T16:36:51;2.40;;;0.70;;
21810;SDS011;11067;48.788;9.208;2023-04-01T16:39:28;0.40;;;0.40;;
21810;SDS011;11067;48.788;9.208;2023-04-01T16:44:31;0.63;;;0.40;;
21810;SDS011;11067;48.788;9.208;2023-04-01T16:47:12;0.73;;;0.50;;
21810;SDS011;11067;48.788;9.208;2023-04-01T16:49:53;1.38;;;0.90;;
21810;SDS011;11067;48.788;9.208;2023-04-01T16:52:40;1.48;;;0.75;;
21810;SDS011;11067;48.788;9.208;2023-04-01T16:55:17;1.03;;;0.60;;
21810;SDS011;11067;48.788;9.208;2023-04-01T16:57:52;5.10;;;1.67;;
21810;SDS011;11067;48.788;9.208;2023-04-01T17:00:23;0.75;;;0.47;;
21810;SDS011;11067;48.788;9.208;2023-04-01T17:10:57;2.97;;;0.73;;
21810;SDS011;11067;48.788;9.208;2023-04-01T17:13:34;1.00;;;0.70;;
21810;SDS011;11067;48.788;9.208;2023-04-01T17:16:10;2.42;;;0.77;;
21810;SDS011;11067;48.788;9.208;2023-04-01T17:18:46;1.52;;;0.93;;
21810;SDS011;11067;48.788;9.208;2023-04-01T17:24:53;1.88;;;1.08;;
21810;SDS011;11067;48.788;9.208;2023-04-01T17:27:36;1.52;;;0.90;;
21810;SDS011;11067;48.788;9.208;2023-04-01T17:30:20;3.45;;;1.00;;
21810;SDS011;11067;48.788;9.208;2023-04-01T17:32:57;2.10;;;1.00;;
21810;SDS011;11067;48.788;9.208;2023-04-01T17:35:40;1.05;;;0.70;;
21810;SDS011;11067;48.788;9.208;2023-04-01T17:38:20;2.03;;;0.88;;
21810;SDS011;11067;48.788;9.208;2023-04-01T17:43:47;1.30;;;0.70;;
21810;SDS011;11067;48.788;9.208;2023-04-01T17:49:23;1.48;;;0.98;;
21810;SDS011;11067;48.788;9.208;2023-04-01T17:57:46;1.73;;;0.93;;
21810;SDS011;11067;48.788;9.208;2023-04-01T18:05:59;2.13;;;1.30;;
21810;SDS011;11067;48.788;9.208;2023-04-01T18:22:08;1.48;;;0.98;;
21810;SDS011;11067;48.788;9.208;2023-04-01T18:24:47;2.08;;;1.30;;
21810;SDS011;11067;48.788;9.208;2023-04-01T18:27:43;2.30;;;1.35;;
21810;SDS011;11067;48.788;9.208;2023-04-01T18:30:13;2.40;;;1.10;;
21810;SDS011;11067;48.788;9.208;2023-04-01T18:35:29;1.50;;;1.23;;
21810;SDS011;11067;48.788;9.208;2023-04-01T18:38:13;2.47;;;1.60;;
21810;SDS011;11067;48.788;9.208;2023-04-01T18:40:58;2.47;;;1.20;;
21810;SDS011;11067;48.788;9.208;2023-04-01T18:43:42;1.37;;;1.00;;
21810;SDS011;11067;48.788;9.208;2023-04-01T18:46:23;2.70;;;1.48;;
21810;SDS011;11067;48.788;9.208;2023-04-01T18:48:57;1.65;;;0.90;;
21810;SDS011;11067;48.788;9.208;2023-04-01T18:51:59;1.13;;;0.90;;
21810;SDS011;11067;48.788;9.208;2023-04-01T18:54:37;2.75;;;0.85;;
21810;SDS011;11067;48.788;9.208;2023-04-01T18:57:13;2.20;;;0.80;;
21810;SDS011;11067;48.788;9.208;2023-04-01T18:59:45;1.10;;;0.80;;
21810;SDS011;11067;48.788;9.208;2023-04-01T19:02:18;2.22;;;0.90;;
21810;SDS011;11067;48.788;9.208;2023-04-01T19:05:12;3.15;;;0.90;;
21810;SDS011;11067;48.788;9.208;2023-04-01T19:07:45;0.68;;;0.60;;
21810;SDS011;11067;48.788;9.208;2023-04-01T19:10:37;1.95;;;0.93;;
21810;SDS011;11067;48.788;9.208;2023-04-01T19:13:28;3.70;;;1.20;;
21810;SDS011;11067;48.788;9.208;2023-04-01T19:16:05;2.07;;;1.20;;
21810;SDS011;11067;48.788;9.208;2023-04-01T19:21:47;3.85;;;1.20;;
21810;SDS011;11067;48.788;9.208;2023-04-01T19:35:48;2.78;;;1.10;;
21810;SDS011;11067;48.788;9.208;2023-04-01T19:38:30;3.47;;;1.37;;
21810;SDS011;11067;48.788;9.208;2023-04-01T19:43:50;4.07;;;1.40;;
21810;SDS011;11067;48.788;9.208;2023-04-01T19:46:30;1.90;;;1.40;;
21810;SDS011;11067;48.788;9.208;2023-04-01T19:59:34;3.10;;;1.20;;
21810;SDS011;11067;48.788;9.208;2023-04-01T20:04:36;2.47;;;1.35;;
21810;SDS011;11067;48.788;9.208;2023-04-01T20:07:08;2.45;;;1.40;;
21810;SDS011;11067;48.788;9.208;2023-04-01T20:10:04;1.85;;;1.10;;
21810;SDS011;11067;48.788;9.208;2023-04-01T20:15:37;2.03;;;1.10;;
21810;SDS011;11067;48.788;9.208;2023-04-01T20:18:12;2.10;;;1.35;;
21810;SDS011;11067;48.788;9.208;2023-04-01T20:20:41;3.03;;;1.30;;
21810;SDS011;11067;48.788;9.208;2023-04-01T20:23:31;3.67;;;1.83;;
21810;SDS011;11067;48.788;9.208;2023-04-01T20:26:22;2.85;;;1.25;;
21810;SDS011;11067;48.788;9.208;2023-04-01T20:34:41;0.63;;;0.63;;
21810;SDS011;11067;48.788;9.208;2023-04-01T20:40:20;1.02;;;0.80;;
21810;SDS011;11067;48.788;9.208;2023-04-01T20:43:11;0.60;;;0.60;;
21810;SDS011;11067;48.788;9.208;2023-04-01T20:48:37;1.85;;;1.10;;
21810;SDS011;11067;48.788;9.208;2023-04-01T20:51:14;1.70;;;0.70;;
21810;SDS011;11067;48.788;9.208;2023-04-01T20:56:41;2.35;;;0.90;;
21810;SDS011;11067;48.788;9.208;2023-04-01T21:07:41;1.98;;;1.13;;
21810;SDS011;11067;48.788;9.208;2023-04-01T21:10:30;3.83;;;1.33;;
21810;SDS011;11067;48.788;9.208;2023-04-01T21:13:33;1.55;;;0.98;;
21810;SDS011;11067;48.788;9.208;2023-04-01T21:16:19;1.13;;;0.85;;
21810;SDS011;11067;48.788;9.208;2023-04-01T21:22:00;4.30;;;0.87;;
21810;SDS011;11067;48.788;9.208;2023-04-01T21:30:35;2.40;;;0.63;;
21810;SDS011;11067;48.788;9.208;2023-04-01T21:33:32;1.58;;;0.80;;
21810;SDS011;11067;48.788;9.208;2023-04-01T21:36:37;1.02;;;0.85;;
21810;SDS011;11067;48.788;9.208;2023-04-01T21:39:08;1.65;;;1.00;;
21810;SDS011;11067;48.788;9.208;2023-04-01T21:41:58;1.80;;;1.17;;
21810;SDS011;11067;48.788;9.208;2023-04-01T21:44:36;1.02;;;0.93;;
21810;SDS011;11067;48.788;9.208;2023-04-01T21:47:19;1.80;;;1.20;;
21810;SDS011;11067;48.788;9.208;2023-04-01T22:07:16;2.20;;;0.95;;
21810;SDS011;11067;48.788;9.208;2023-04-01T22:17:42;0.85;;;0.70;;
21810;SDS011;11067;48.788;9.208;2023-04-01T22:20:31;0.85;;;0.73;;
21810;SDS011;11067;48.788;9.208;2023-04-01T22:23:11;1.83;;;0.90;;
21810;SDS011;11067;48.788;9.208;2023-04-01T22:28:37;1.73;;;0.80;;
21810;SDS011;11067;48.788;9.208;2023-04-01T22:31:06;1.60;;;1.00;;
21810;SDS011;11067;48.788;9.208;2023-04-01T22:33:42;1.25;;;0.95;;
21810;SDS011;11067;48.788;9.208;2023-04-01T22:41:47;2.30;;;0.80;;
21810;SDS011;11067;48.788;9.208;2023-04-01T22:44:30;1.80;;;0.80;;
21810;SDS011;11067;48.788;9.208;2023-04-01T22:49:59;2.40;;;0.70;;
21810;SDS011;11067;48.788;9.208;2023-04-01T22:52:54;1.73;;;0.80;;
21810;SDS011;11067;48.788;9.208;2023-04-01T22:55:24;2.97;;;1.05;;
21810;SDS011;11067;48.788;9.208;2023-04-01T22:57:55;1.25;;;0.75;;
21810;SDS011;11067;48.788;9.208;2023-04-01T23:05:52;0.45;;;0.45;;
21810;SDS011;11067;48.788;9.208;2023-04-01T23:08:41;2.20;;;0.88;;
21810;SDS011;11067;48.788;9.208;2023-04-01T23:11:37;0.52;;;0.50;;
21810;SDS011;11067;48.788;9.208;2023-04-01T23:16:51;0.90;;;0.68;;
21810;SDS011;11067;48.788;9.208;2023-04-01T23:22:16;1.20;;;0.40;;
21810;SDS011;11067;48.788;9.208;2023-04-01T23:25:15;1.30;;;0.47;;
21810;SDS011;11067;48.788;9.208;2023-04-01T23:27:53;2.95;;;0.50;;
21810;SDS011;11067;48.788;9.208;2023-04-01T23:33:15;1.20;;;0.60;;
21810;SDS011;11067;48.788;9.208;2023-04-01T23:35:55;2.30;;;0.60;;
21810;SDS011;11067;48.788;9.208;2023-04-01T23:38:38;0.60;;;0.43;;
21810;SDS011;11067;48.788;9.208;2023-04-01T23:41:06;0.80;;;0.50;;
21810;SDS011;11067;48.788;9.208;2023-04-01T23:44:04;0.40;;;0.40;;
21810;SDS011;11067;48.788;9.208;2023-04-01T23:46:34;1.63;;;0.57;;
21810;SDS011;11067;48.788;9.208;2023-04-01T23:49:02;0.55;;;0.43;;
21810;SDS011;11067;48.788;9.208;2023-04-01T23:51:29;1.42;;;0.60;;
21810;SDS011;11067;48.788;9.208;2023-04-01T23:54:29;0.60;;;0.50;;
21810;SDS011;11067;48.788;9.208;2023-04-01T23:56:59;0.60;;;0.50;;
21810;SDS011;11067;48.788;9.208;2023-04-01T23:59:33;0.70;;;0.50;;
